sensor_id;sensor_type;location;lat;lon;timestamp;P1;durP1;ratioP1;P2;durP2;ratioP2
8538;SDS011;4307;53.868;11.680;2023-08-06T00:02:04;5.10;;;3.23;;
8538;SDS011;4307;53.868;11.680;2023-08-06T00:04:31;6.33;;;3.13;;
8538;SDS011;4307;53.868;11.680;2023-08-06T00:06:58;6.13;;;3.67;;
8538;SDS011;4307;53.868;11.680;2023-08-06T00:09:24;7.93;;;3.20;;
8538;SDS011;4307;53.868;11.680;2023-08-06T00:11:52;7.57;;;3.13;;
8538;SDS011;4307;53.868;11.680;2023-08-06T00:14:19;6.73;;;3.20;;
8538;SDS011;4307;53.868;11.680;2023-08-06T00:16:46;7.67;;;3.00;;
8538;SDS011;4307;53.868;11.680;2023-08-06T00:19:12;10.10;;;3.60;;
8538;SDS011;4307;53.868;11.680;2023-08-06T00:21:39;5.33;;;3.40;;
8538;SDS011;4307;53.868;11.680;2023-08-06T00:24:05;8.00;;;3.30;;
8538;SDS011;4307;53.868;11.680;2023-08-06T00:26:32;9.40;;;3.30;;
8538;SDS011;4307;53.868;11.680;2023-08-06T00:29:00;7.27;;;3.40;;
8538;SDS011;4307;53.868;11.680;2023-08-06T00:31:27;6.07;;;3.10;;
8538;SDS011;4307;53.868;11.680;2023-08-06T00:33:53;5.70;;;3.00;;
8538;SDS011;4307;53.868;11.680;2023-08-06T00:36:20;3.73;;;3.00;;
8538;SDS011;4307;53.868;11.680;2023-08-06T00:38:47;4.10;;;3.10;;
8538;SDS011;4307;53.868;11.680;2023-08-06T00:41:13;3.57;;;2.90;;
8538;SDS011;4307;53.868;11.680;2023-08-06T00:43:40;8.13;;;3.30;;
8538;SDS011;4307;53.868;11.680;2023-08-06T00:46:08;5.43;;;3.27;;
8538;SDS011;4307;53.868;11.680;2023-08-06T00:48:35;5.63;;;3.40;;
8538;SDS011;4307;53.868;11.680;2023-08-06T00:51:02;7.13;;;3.30;;
8538;SDS011;4307;53.868;11.680;2023-08-06T00:53:29;6.37;;;3.10;;
8538;SDS011;4307;53.868;11.680;2023-08-06T00:55:56;5.83;;;3.40;;
8538;SDS011;4307;53.868;11.680;2023-08-06T00:58:23;5.93;;;3.37;;
8538;SDS011;4307;53.868;11.680;2023-08-06T01:00:50;5.63;;;3.13;;
8538;SDS011;4307;53.868;11.680;2023-08-06T01:03:18;5.83;;;3.47;;
8538;SDS011;4307;53.868;11.680;2023-08-06T01:05:45;4.33;;;3.20;;
8538;SDS011;4307;53.868;11.680;2023-08-06T01:08:15;5.67;;;3.63;;
8538;SDS011;4307;53.868;11.680;2023-08-06T01:10:54;5.70;;;3.17;;
8538;SDS011;4307;53.868;11.680;2023-08-06T01:13:31;3.63;;;3.03;;
8538;SDS011;4307;53.868;11.680;2023-08-06T01:16:04;5.00;;;3.03;;
8538;SDS011;4307;53.868;11.680;2023-08-06T01:18:33;4.60;;;3.30;;
8538;SDS011;4307;53.868;11.680;2023-08-06T01:21:03;7.27;;;3.37;;
8538;SDS011;4307;53.868;11.680;2023-08-06T01:23:30;4.57;;;3.10;;
8538;SDS011;4307;53.868;11.680;2023-08-06T01:25:59;6.87;;;3.30;;
8538;SDS011;4307;53.868;11.680;2023-08-06T01:28:38;7.07;;;3.37;;
8538;SDS011;4307;53.868;11.680;2023-08-06T01:31:12;4.03;;;3.40;;
8538;SDS011;4307;53.868;11.680;2023-08-06T01:33:42;6.10;;;3.70;;
8538;SDS011;4307;53.868;11.680;2023-08-06T01:36:12;6.50;;;3.43;;
8538;SDS011;4307;53.868;11.680;2023-08-06T01:38:41;5.47;;;3.20;;
8538;SDS011;4307;53.868;11.680;2023-08-06T01:41:08;6.03;;;3.13;;
8538;SDS011;4307;53.868;11.680;2023-08-06T01:43:34;5.10;;;3.33;;
8538;SDS011;4307;53.868;11.680;2023-08-06T01:46:01;5.97;;;3.43;;
8538;SDS011;4307;53.868;11.680;2023-08-06T01:48:28;5.30;;;3.60;;
8538;SDS011;4307;53.868;11.680;2023-08-06T01:50:54;5.93;;;3.60;;
8538;SDS011;4307;53.868;11.680;2023-08-06T01:53:22;6.57;;;3.67;;
8538;SDS011;4307;53.868;11.680;2023-08-06T01:55:49;9.03;;;3.70;;
8538;SDS011;4307;53.868;11.680;2023-08-06T01:58:16;5.00;;;3.10;;
8538;SDS011;4307;53.868;11.680;2023-08-06T02:00:42;6.23;;;3.50;;
8538;SDS011;4307;53.868;11.680;2023-08-06T02:03:09;3.63;;;3.33;;
8538;SDS011;4307;53.868;11.680;2023-08-06T02:05:36;5.43;;;3.30;;
8538;SDS011;4307;53.868;11.680;2023-08-06T02:08:02;6.33;;;3.60;;
8538;SDS011;4307;53.868;11.680;2023-08-06T02:10:31;3.47;;;3.03;;
8538;SDS011;4307;53.868;11.680;2023-08-06T02:12:57;7.60;;;3.40;;
8538;SDS011;4307;53.868;11.680;2023-08-06T02:15:24;4.97;;;3.50;;
8538;SDS011;4307;53.868;11.680;2023-08-06T02:17:51;8.87;;;3.57;;
8538;SDS011;4307;53.868;11.680;2023-08-06T02:20:18;5.20;;;3.37;;
8538;SDS011;4307;53.868;11.680;2023-08-06T02:22:44;5.47;;;3.00;;
8538;SDS011;4307;53.868;11.680;2023-08-06T02:25:11;5.07;;;3.53;;
8538;SDS011;4307;53.868;11.680;2023-08-06T02:27:39;6.20;;;3.50;;
8538;SDS011;4307;53.868;11.680;2023-08-06T02:30:06;7.93;;;3.50;;
8538;SDS011;4307;53.868;11.680;2023-08-06T02:32:33;5.17;;;3.60;;
8538;SDS011;4307;53.868;11.680;2023-08-06T02:35:01;4.70;;;3.50;;
8538;SDS011;4307;53.868;11.680;2023-08-06T02:37:27;9.00;;;3.87;;
8538;SDS011;4307;53.868;11.680;2023-08-06T02:39:54;4.17;;;3.33;;
8538;SDS011;4307;53.868;11.680;2023-08-06T02:42:20;6.37;;;3.30;;
8538;SDS011;4307;53.868;11.680;2023-08-06T02:44:49;5.37;;;3.53;;
8538;SDS011;4307;53.868;11.680;2023-08-06T02:47:16;6.57;;;3.37;;
8538;SDS011;4307;53.868;11.680;2023-08-06T02:49:43;4.57;;;3.50;;
8538;SDS011;4307;53.868;11.680;2023-08-06T02:52:10;4.63;;;3.20;;
8538;SDS011;4307;53.868;11.680;2023-08-06T02:54:36;6.40;;;3.33;;
8538;SDS011;4307;53.868;11.680;2023-08-06T02:57:03;5.70;;;3.53;;
8538;SDS011;4307;53.868;11.680;2023-08-06T02:59:31;7.47;;;3.40;;
8538;SDS011;4307;53.868;11.680;2023-08-06T03:01:59;6.60;;;3.80;;
8538;SDS011;4307;53.868;11.680;2023-08-06T03:04:25;7.70;;;3.53;;
8538;SDS011;4307;53.868;11.680;2023-08-06T03:06:52;5.63;;;3.87;;
8538;SDS011;4307;53.868;11.680;2023-08-06T03:09:19;8.03;;;3.97;;
8538;SDS011;4307;53.868;11.680;2023-08-06T03:11:45;4.47;;;4.07;;
8538;SDS011;4307;53.868;11.680;2023-08-06T03:14:12;7.43;;;3.87;;
8538;SDS011;4307;53.868;11.680;2023-08-06T03:16:38;6.10;;;4.10;;
8538;SDS011;4307;53.868;11.680;2023-08-06T03:19:06;6.03;;;3.90;;
8538;SDS011;4307;53.868;11.680;2023-08-06T03:21:33;7.07;;;3.80;;
8538;SDS011;4307;53.868;11.680;2023-08-06T03:24:00;8.70;;;4.10;;
8538;SDS011;4307;53.868;11.680;2023-08-06T03:26:26;6.30;;;3.87;;
8538;SDS011;4307;53.868;11.680;2023-08-06T03:28:53;5.00;;;4.20;;
8538;SDS011;4307;53.868;11.680;2023-08-06T03:31:20;4.53;;;3.97;;
8538;SDS011;4307;53.868;11.680;2023-08-06T03:33:47;6.17;;;4.23;;
8538;SDS011;4307;53.868;11.680;2023-08-06T03:36:15;6.50;;;3.97;;
8538;SDS011;4307;53.868;11.680;2023-08-06T03:38:41;4.90;;;3.83;;
8538;SDS011;4307;53.868;11.680;2023-08-06T03:41:08;4.67;;;3.83;;
8538;SDS011;4307;53.868;11.680;2023-08-06T03:43:34;4.67;;;3.70;;
8538;SDS011;4307;53.868;11.680;2023-08-06T03:46:01;6.73;;;4.00;;
8538;SDS011;4307;53.868;11.680;2023-08-06T03:48:28;5.43;;;3.60;;
8538;SDS011;4307;53.868;11.680;2023-08-06T03:50:54;4.33;;;3.80;;
8538;SDS011;4307;53.868;11.680;2023-08-06T03:53:23;7.90;;;4.23;;
8538;SDS011;4307;53.868;11.680;2023-08-06T03:55:50;5.13;;;3.97;;
8538;SDS011;4307;53.868;11.680;2023-08-06T03:58:16;6.20;;;4.03;;
8538;SDS011;4307;53.868;11.680;2023-08-06T04:00:43;6.93;;;4.23;;
8538;SDS011;4307;53.868;11.680;2023-08-06T04:03:09;5.97;;;4.20;;
8538;SDS011;4307;53.868;11.680;2023-08-06T04:05:36;6.33;;;4.30;;
8538;SDS011;4307;53.868;11.680;2023-08-06T04:08:03;9.83;;;4.70;;
8538;SDS011;4307;53.868;11.680;2023-08-06T04:10:31;7.17;;;4.20;;
8538;SDS011;4307;53.868;11.680;2023-08-06T04:12:58;7.67;;;4.03;;
8538;SDS011;4307;53.868;11.680;2023-08-06T04:15:24;6.80;;;3.83;;
8538;SDS011;4307;53.868;11.680;2023-08-06T04:17:51;7.83;;;4.40;;
8538;SDS011;4307;53.868;11.680;2023-08-06T04:20:17;7.27;;;4.30;;
8538;SDS011;4307;53.868;11.680;2023-08-06T04:22:44;4.57;;;3.67;;
8538;SDS011;4307;53.868;11.680;2023-08-06T04:25:11;7.77;;;3.80;;
8538;SDS011;4307;53.868;11.680;2023-08-06T04:27:39;6.97;;;4.03;;
8538;SDS011;4307;53.868;11.680;2023-08-06T04:30:07;4.53;;;3.87;;
8538;SDS011;4307;53.868;11.680;2023-08-06T04:32:34;4.70;;;3.97;;
8538;SDS011;4307;53.868;11.680;2023-08-06T04:35:00;5.23;;;3.60;;
8538;SDS011;4307;53.868;11.680;2023-08-06T04:37:27;7.03;;;3.60;;
8538;SDS011;4307;53.868;11.680;2023-08-06T04:39:54;6.47;;;3.93;;
8538;SDS011;4307;53.868;11.680;2023-08-06T04:42:20;9.73;;;3.50;;
8538;SDS011;4307;53.868;11.680;2023-08-06T04:44:48;5.90;;;3.83;;
8538;SDS011;4307;53.868;11.680;2023-08-06T04:47:15;6.07;;;3.87;;
8538;SDS011;4307;53.868;11.680;2023-08-06T04:49:42;5.70;;;4.13;;
8538;SDS011;4307;53.868;11.680;2023-08-06T04:52:09;4.43;;;3.50;;
8538;SDS011;4307;53.868;11.680;2023-08-06T04:54:35;6.33;;;3.80;;
8538;SDS011;4307;53.868;11.680;2023-08-06T04:57:02;5.60;;;3.67;;
8538;SDS011;4307;53.868;11.680;2023-08-06T04:59:29;9.27;;;4.07;;
8538;SDS011;4307;53.868;11.680;2023-08-06T05:01:57;4.53;;;3.53;;
8538;SDS011;4307;53.868;11.680;2023-08-06T05:04:24;4.43;;;3.47;;
8538;SDS011;4307;53.868;11.680;2023-08-06T05:06:50;3.77;;;3.43;;
8538;SDS011;4307;53.868;11.680;2023-08-06T05:09:17;6.53;;;4.10;;
8538;SDS011;4307;53.868;11.680;2023-08-06T05:11:45;3.70;;;3.30;;
8538;SDS011;4307;53.868;11.680;2023-08-06T05:14:12;5.57;;;3.90;;
8538;SDS011;4307;53.868;11.680;2023-08-06T05:16:39;6.10;;;3.43;;
8538;SDS011;4307;53.868;11.680;2023-08-06T05:19:07;6.00;;;3.83;;
8538;SDS011;4307;53.868;11.680;2023-08-06T05:21:33;8.40;;;3.70;;
8538;SDS011;4307;53.868;11.680;2023-08-06T05:24:00;8.07;;;3.50;;
8538;SDS011;4307;53.868;11.680;2023-08-06T05:26:26;7.30;;;3.73;;
8538;SDS011;4307;53.868;11.680;2023-08-06T05:28:53;4.83;;;3.90;;
8538;SDS011;4307;53.868;11.680;2023-08-06T05:31:20;5.37;;;3.47;;
8538;SDS011;4307;53.868;11.680;2023-08-06T05:33:46;5.87;;;3.60;;
8538;SDS011;4307;53.868;11.680;2023-08-06T05:36:14;6.60;;;3.73;;
8538;SDS011;4307;53.868;11.680;2023-08-06T05:38:42;6.30;;;3.30;;
8538;SDS011;4307;53.868;11.680;2023-08-06T05:41:09;6.37;;;3.53;;
8538;SDS011;4307;53.868;11.680;2023-08-06T05:43:36;4.23;;;3.60;;
8538;SDS011;4307;53.868;11.680;2023-08-06T05:46:02;7.17;;;3.97;;
8538;SDS011;4307;53.868;11.680;2023-08-06T05:48:29;5.97;;;3.50;;
8538;SDS011;4307;53.868;11.680;2023-08-06T05:50:56;4.97;;;3.13;;
8538;SDS011;4307;53.868;11.680;2023-08-06T05:53:24;5.40;;;3.50;;
8538;SDS011;4307;53.868;11.680;2023-08-06T05:55:51;4.57;;;2.97;;
8538;SDS011;4307;53.868;11.680;2023-08-06T05:58:18;5.53;;;3.63;;
8538;SDS011;4307;53.868;11.680;2023-08-06T06:00:45;3.83;;;3.40;;
8538;SDS011;4307;53.868;11.680;2023-08-06T06:03:11;7.43;;;3.47;;
8538;SDS011;4307;53.868;11.680;2023-08-06T06:05:38;5.57;;;3.33;;
8538;SDS011;4307;53.868;11.680;2023-08-06T06:08:05;6.70;;;4.03;;
8538;SDS011;4307;53.868;11.680;2023-08-06T06:10:33;5.90;;;3.57;;
8538;SDS011;4307;53.868;11.680;2023-08-06T06:12:59;6.60;;;3.80;;
8538;SDS011;4307;53.868;11.680;2023-08-06T06:15:26;6.37;;;4.10;;
8538;SDS011;4307;53.868;11.680;2023-08-06T06:17:53;6.70;;;3.97;;
8538;SDS011;4307;53.868;11.680;2023-08-06T06:20:19;8.93;;;4.13;;
8538;SDS011;4307;53.868;11.680;2023-08-06T06:22:46;6.57;;;3.67;;
8538;SDS011;4307;53.868;11.680;2023-08-06T06:25:13;6.47;;;4.13;;
8538;SDS011;4307;53.868;11.680;2023-08-06T06:27:41;6.07;;;4.20;;
8538;SDS011;4307;53.868;11.680;2023-08-06T06:30:08;6.73;;;3.90;;
8538;SDS011;4307;53.868;11.680;2023-08-06T06:32:37;4.63;;;3.50;;
8538;SDS011;4307;53.868;11.680;2023-08-06T06:35:05;7.23;;;3.60;;
8538;SDS011;4307;53.868;11.680;2023-08-06T06:37:32;9.43;;;3.70;;
8538;SDS011;4307;53.868;11.680;2023-08-06T06:39:58;6.00;;;3.90;;
8538;SDS011;4307;53.868;11.680;2023-08-06T06:42:25;7.17;;;3.87;;
8538;SDS011;4307;53.868;11.680;2023-08-06T06:44:53;5.37;;;3.67;;
8538;SDS011;4307;53.868;11.680;2023-08-06T06:47:20;5.47;;;3.53;;
8538;SDS011;4307;53.868;11.680;2023-08-06T06:49:46;8.90;;;3.67;;
8538;SDS011;4307;53.868;11.680;2023-08-06T06:52:14;3.93;;;3.27;;
8538;SDS011;4307;53.868;11.680;2023-08-06T06:54:40;4.83;;;3.10;;
8538;SDS011;4307;53.868;11.680;2023-08-06T06:57:07;3.37;;;3.07;;
8538;SDS011;4307;53.868;11.680;2023-08-06T06:59:34;7.47;;;3.63;;
8538;SDS011;4307;53.868;11.680;2023-08-06T07:02:02;5.53;;;3.47;;
8538;SDS011;4307;53.868;11.680;2023-08-06T07:04:29;5.77;;;3.43;;
8538;SDS011;4307;53.868;11.680;2023-08-06T07:06:56;4.13;;;2.70;;
8538;SDS011;4307;53.868;11.680;2023-08-06T07:09:22;6.07;;;3.40;;
8538;SDS011;4307;53.868;11.680;2023-08-06T07:11:49;5.57;;;3.33;;
8538;SDS011;4307;53.868;11.680;2023-08-06T07:14:16;3.30;;;3.00;;
8538;SDS011;4307;53.868;11.680;2023-08-06T07:16:43;6.23;;;3.23;;
8538;SDS011;4307;53.868;11.680;2023-08-06T07:19:11;3.90;;;2.87;;
8538;SDS011;4307;53.868;11.680;2023-08-06T07:21:37;3.47;;;2.97;;
8538;SDS011;4307;53.868;11.680;2023-08-06T07:24:04;7.47;;;3.60;;
8538;SDS011;4307;53.868;11.680;2023-08-06T07:26:31;5.27;;;3.10;;
8538;SDS011;4307;53.868;11.680;2023-08-06T07:28:58;6.50;;;3.30;;
8538;SDS011;4307;53.868;11.680;2023-08-06T07:31:24;4.80;;;3.07;;
8538;SDS011;4307;53.868;11.680;2023-08-06T07:33:51;4.43;;;3.10;;
8538;SDS011;4307;53.868;11.680;2023-08-06T07:36:19;5.10;;;2.97;;
8538;SDS011;4307;53.868;11.680;2023-08-06T07:38:46;3.87;;;2.90;;
8538;SDS011;4307;53.868;11.680;2023-08-06T07:41:16;4.57;;;2.80;;
8538;SDS011;4307;53.868;11.680;2023-08-06T07:43:43;3.87;;;2.60;;
8538;SDS011;4307;53.868;11.680;2023-08-06T07:46:09;3.57;;;2.70;;
8538;SDS011;4307;53.868;11.680;2023-08-06T07:48:38;7.13;;;3.27;;
8538;SDS011;4307;53.868;11.680;2023-08-06T07:51:05;5.10;;;2.83;;
8538;SDS011;4307;53.868;11.680;2023-08-06T07:53:33;3.03;;;2.73;;
8538;SDS011;4307;53.868;11.680;2023-08-06T07:55:59;4.67;;;2.60;;
8538;SDS011;4307;53.868;11.680;2023-08-06T07:58:27;3.03;;;2.60;;
8538;SDS011;4307;53.868;11.680;2023-08-06T08:00:54;3.20;;;2.57;;
8538;SDS011;4307;53.868;11.680;2023-08-06T08:03:21;4.20;;;3.03;;
8538;SDS011;4307;53.868;11.680;2023-08-06T08:05:48;3.00;;;2.60;;
8538;SDS011;4307;53.868;11.680;2023-08-06T08:08:14;6.63;;;3.00;;
8538;SDS011;4307;53.868;11.680;2023-08-06T08:10:42;2.90;;;2.50;;
8538;SDS011;4307;53.868;11.680;2023-08-06T08:13:10;4.00;;;3.40;;
8538;SDS011;4307;53.868;11.680;2023-08-06T08:15:36;5.60;;;2.70;;
8538;SDS011;4307;53.868;11.680;2023-08-06T08:18:03;2.63;;;2.43;;
8538;SDS011;4307;53.868;11.680;2023-08-06T08:20:30;3.53;;;2.53;;
8538;SDS011;4307;53.868;11.680;2023-08-06T08:22:58;8.20;;;3.03;;
8538;SDS011;4307;53.868;11.680;2023-08-06T08:25:25;6.47;;;2.50;;
8538;SDS011;4307;53.868;11.680;2023-08-06T08:27:54;3.10;;;2.73;;
8538;SDS011;4307;53.868;11.680;2023-08-06T08:30:21;6.40;;;3.00;;
8538;SDS011;4307;53.868;11.680;2023-08-06T08:32:49;3.97;;;2.63;;
8538;SDS011;4307;53.868;11.680;2023-08-06T08:35:16;7.30;;;2.70;;
8538;SDS011;4307;53.868;11.680;2023-08-06T08:37:43;8.33;;;3.17;;
8538;SDS011;4307;53.868;11.680;2023-08-06T08:40:10;4.70;;;3.13;;
8538;SDS011;4307;53.868;11.680;2023-08-06T08:42:37;6.20;;;2.80;;
8538;SDS011;4307;53.868;11.680;2023-08-06T08:45:05;5.20;;;2.57;;
8538;SDS011;4307;53.868;11.680;2023-08-06T08:47:37;7.00;;;2.83;;
8538;SDS011;4307;53.868;11.680;2023-08-06T08:50:05;4.60;;;2.70;;
8538;SDS011;4307;53.868;11.680;2023-08-06T08:52:34;4.20;;;2.87;;
8538;SDS011;4307;53.868;11.680;2023-08-06T08:55:02;8.20;;;3.03;;
8538;SDS011;4307;53.868;11.680;2023-08-06T08:57:29;5.00;;;2.57;;
8538;SDS011;4307;53.868;11.680;2023-08-06T08:59:56;4.07;;;2.90;;
8538;SDS011;4307;53.868;11.680;2023-08-06T09:02:24;4.33;;;2.77;;
8538;SDS011;4307;53.868;11.680;2023-08-06T09:04:53;4.40;;;2.83;;
8538;SDS011;4307;53.868;11.680;2023-08-06T09:07:20;8.43;;;3.57;;
8538;SDS011;4307;53.868;11.680;2023-08-06T09:09:49;6.07;;;2.77;;
8538;SDS011;4307;53.868;11.680;2023-08-06T09:12:17;5.60;;;2.67;;
8538;SDS011;4307;53.868;11.680;2023-08-06T09:14:44;3.70;;;2.70;;
8538;SDS011;4307;53.868;11.680;2023-08-06T09:17:10;4.13;;;3.00;;
8538;SDS011;4307;53.868;11.680;2023-08-06T09:19:39;7.03;;;3.20;;
8538;SDS011;4307;53.868;11.680;2023-08-06T09:22:11;5.43;;;2.90;;
8538;SDS011;4307;53.868;11.680;2023-08-06T09:24:38;3.23;;;2.93;;
8538;SDS011;4307;53.868;11.680;2023-08-06T09:27:10;4.17;;;2.83;;
8538;SDS011;4307;53.868;11.680;2023-08-06T09:29:39;4.20;;;2.80;;
8538;SDS011;4307;53.868;11.680;2023-08-06T09:32:07;3.27;;;2.57;;
8538;SDS011;4307;53.868;11.680;2023-08-06T09:34:34;3.83;;;2.70;;
8538;SDS011;4307;53.868;11.680;2023-08-06T09:37:02;4.47;;;2.53;;
8538;SDS011;4307;53.868;11.680;2023-08-06T09:39:30;5.50;;;3.13;;
8538;SDS011;4307;53.868;11.680;2023-08-06T09:41:57;4.77;;;3.00;;
8538;SDS011;4307;53.868;11.680;2023-08-06T09:44:25;5.30;;;2.80;;
8538;SDS011;4307;53.868;11.680;2023-08-06T09:46:53;3.60;;;2.27;;
8538;SDS011;4307;53.868;11.680;2023-08-06T09:49:24;5.00;;;3.00;;
8538;SDS011;4307;53.868;11.680;2023-08-06T09:51:51;4.00;;;2.73;;
8538;SDS011;4307;53.868;11.680;2023-08-06T09:54:23;3.97;;;2.53;;
8538;SDS011;4307;53.868;11.680;2023-08-06T09:56:51;4.87;;;2.53;;
8538;SDS011;4307;53.868;11.680;2023-08-06T09:59:18;5.10;;;2.80;;
8538;SDS011;4307;53.868;11.680;2023-08-06T10:01:45;3.17;;;2.67;;
8538;SDS011;4307;53.868;11.680;2023-08-06T10:04:13;3.37;;;2.60;;
8538;SDS011;4307;53.868;11.680;2023-08-06T10:06:43;5.33;;;2.83;;
8538;SDS011;4307;53.868;11.680;2023-08-06T10:09:13;4.70;;;2.90;;
8538;SDS011;4307;53.868;11.680;2023-08-06T10:11:40;5.77;;;2.77;;
8538;SDS011;4307;53.868;11.680;2023-08-06T10:14:10;5.73;;;2.63;;
8538;SDS011;4307;53.868;11.680;2023-08-06T10:16:39;5.73;;;2.87;;
8538;SDS011;4307;53.868;11.680;2023-08-06T10:19:09;3.00;;;2.10;;
8538;SDS011;4307;53.868;11.680;2023-08-06T10:21:37;3.40;;;2.70;;
8538;SDS011;4307;53.868;11.680;2023-08-06T10:24:06;7.33;;;2.90;;
8538;SDS011;4307;53.868;11.680;2023-08-06T10:26:34;6.43;;;2.77;;
8538;SDS011;4307;53.868;11.680;2023-08-06T10:29:02;4.43;;;2.70;;
8538;SDS011;4307;53.868;11.680;2023-08-06T10:32:01;5.03;;;3.00;;
8538;SDS011;4307;53.868;11.680;2023-08-06T10:37:21;3.23;;;2.60;;
8538;SDS011;4307;53.868;11.680;2023-08-06T10:39:49;3.23;;;2.33;;
8538;SDS011;4307;53.868;11.680;2023-08-06T10:42:19;6.73;;;2.40;;
8538;SDS011;4307;53.868;11.680;2023-08-06T10:47:41;6.10;;;2.63;;
8538;SDS011;4307;53.868;11.680;2023-08-06T10:52:37;2.80;;;2.53;;
8538;SDS011;4307;53.868;11.680;2023-08-06T10:55:04;5.47;;;2.87;;
8538;SDS011;4307;53.868;11.680;2023-08-06T10:57:31;6.73;;;2.87;;
8538;SDS011;4307;53.868;11.680;2023-08-06T10:59:58;2.97;;;2.50;;
8538;SDS011;4307;53.868;11.680;2023-08-06T11:02:26;3.83;;;2.60;;
8538;SDS011;4307;53.868;11.680;2023-08-06T11:04:54;3.73;;;2.50;;
8538;SDS011;4307;53.868;11.680;2023-08-06T11:07:20;5.53;;;2.17;;
8538;SDS011;4307;53.868;11.680;2023-08-06T11:09:49;3.30;;;1.97;;
8538;SDS011;4307;53.868;11.680;2023-08-06T11:12:18;5.80;;;2.73;;
8538;SDS011;4307;53.868;11.680;2023-08-06T11:14:49;3.77;;;2.10;;
8538;SDS011;4307;53.868;11.680;2023-08-06T11:17:16;3.97;;;2.40;;
8538;SDS011;4307;53.868;11.680;2023-08-06T11:19:44;2.70;;;2.20;;
8538;SDS011;4307;53.868;11.680;2023-08-06T11:22:11;2.43;;;2.00;;
8538;SDS011;4307;53.868;11.680;2023-08-06T11:24:38;5.10;;;2.23;;
8538;SDS011;4307;53.868;11.680;2023-08-06T11:27:10;3.50;;;2.13;;
8538;SDS011;4307;53.868;11.680;2023-08-06T11:29:38;3.67;;;2.27;;
8538;SDS011;4307;53.868;11.680;2023-08-06T11:32:05;5.50;;;2.73;;
8538;SDS011;4307;53.868;11.680;2023-08-06T11:34:32;4.53;;;2.70;;
8538;SDS011;4307;53.868;11.680;2023-08-06T11:37:00;2.67;;;2.20;;
8538;SDS011;4307;53.868;11.680;2023-08-06T11:39:29;3.10;;;2.47;;
8538;SDS011;4307;53.868;11.680;2023-08-06T11:41:56;3.70;;;2.30;;
8538;SDS011;4307;53.868;11.680;2023-08-06T11:44:25;3.50;;;2.37;;
8538;SDS011;4307;53.868;11.680;2023-08-06T11:46:52;5.40;;;2.63;;
8538;SDS011;4307;53.868;11.680;2023-08-06T11:49:21;4.67;;;2.50;;
8538;SDS011;4307;53.868;11.680;2023-08-06T11:52:08;2.97;;;2.40;;
8538;SDS011;4307;53.868;11.680;2023-08-06T11:54:46;2.77;;;2.10;;
8538;SDS011;4307;53.868;11.680;2023-08-06T11:57:13;4.70;;;2.60;;
8538;SDS011;4307;53.868;11.680;2023-08-06T11:59:41;7.97;;;2.80;;
8538;SDS011;4307;53.868;11.680;2023-08-06T12:02:08;2.80;;;2.00;;
8538;SDS011;4307;53.868;11.680;2023-08-06T12:04:56;6.53;;;2.80;;
8538;SDS011;4307;53.868;11.680;2023-08-06T12:07:27;2.33;;;2.10;;
8538;SDS011;4307;53.868;11.680;2023-08-06T12:09:56;2.80;;;2.50;;
8538;SDS011;4307;53.868;11.680;2023-08-06T12:12:23;4.93;;;2.70;;
8538;SDS011;4307;53.868;11.680;2023-08-06T12:14:50;2.20;;;1.90;;
8538;SDS011;4307;53.868;11.680;2023-08-06T12:17:17;3.23;;;2.00;;
8538;SDS011;4307;53.868;11.680;2023-08-06T12:19:44;2.43;;;2.23;;
8538;SDS011;4307;53.868;11.680;2023-08-06T12:22:12;2.27;;;2.00;;
8538;SDS011;4307;53.868;11.680;2023-08-06T12:24:40;2.83;;;1.90;;
8538;SDS011;4307;53.868;11.680;2023-08-06T12:27:07;2.80;;;1.77;;
8538;SDS011;4307;53.868;11.680;2023-08-06T12:29:34;3.37;;;1.93;;
8538;SDS011;4307;53.868;11.680;2023-08-06T12:32:01;2.40;;;1.83;;
8538;SDS011;4307;53.868;11.680;2023-08-06T12:34:29;4.67;;;1.97;;
8538;SDS011;4307;53.868;11.680;2023-08-06T12:36:56;3.60;;;1.60;;
8538;SDS011;4307;53.868;11.680;2023-08-06T12:39:23;2.00;;;1.80;;
8538;SDS011;4307;53.868;11.680;2023-08-06T12:41:51;2.90;;;1.90;;
8538;SDS011;4307;53.868;11.680;2023-08-06T12:44:17;2.37;;;1.57;;
8538;SDS011;4307;53.868;11.680;2023-08-06T12:46:44;3.23;;;1.57;;
8538;SDS011;4307;53.868;11.680;2023-08-06T12:49:10;1.90;;;1.50;;
8538;SDS011;4307;53.868;11.680;2023-08-06T12:51:37;2.53;;;1.93;;
8538;SDS011;4307;53.868;11.680;2023-08-06T12:54:04;1.90;;;1.53;;
8538;SDS011;4307;53.868;11.680;2023-08-06T12:56:30;1.67;;;1.30;;
8538;SDS011;4307;53.868;11.680;2023-08-06T12:58:58;3.60;;;1.80;;
8538;SDS011;4307;53.868;11.680;2023-08-06T13:01:25;4.67;;;2.07;;
8538;SDS011;4307;53.868;11.680;2023-08-06T13:03:52;2.60;;;2.00;;
8538;SDS011;4307;53.868;11.680;2023-08-06T13:06:18;3.17;;;1.47;;
8538;SDS011;4307;53.868;11.680;2023-08-06T13:08:45;2.00;;;1.70;;
8538;SDS011;4307;53.868;11.680;2023-08-06T13:11:12;2.87;;;1.50;;
8538;SDS011;4307;53.868;11.680;2023-08-06T13:13:39;1.53;;;1.43;;
8538;SDS011;4307;53.868;11.680;2023-08-06T13:16:07;4.70;;;1.60;;
8538;SDS011;4307;53.868;11.680;2023-08-06T13:18:33;2.83;;;1.60;;
8538;SDS011;4307;53.868;11.680;2023-08-06T13:21:00;3.20;;;1.80;;
8538;SDS011;4307;53.868;11.680;2023-08-06T13:23:27;4.13;;;1.90;;
8538;SDS011;4307;53.868;11.680;2023-08-06T13:25:53;1.97;;;1.60;;
8538;SDS011;4307;53.868;11.680;2023-08-06T13:28:20;1.60;;;1.50;;
8538;SDS011;4307;53.868;11.680;2023-08-06T13:30:47;1.80;;;1.60;;
8538;SDS011;4307;53.868;11.680;2023-08-06T13:33:15;2.20;;;1.50;;
8538;SDS011;4307;53.868;11.680;2023-08-06T13:35:41;4.17;;;1.97;;
8538;SDS011;4307;53.868;11.680;2023-08-06T13:38:08;3.60;;;2.17;;
8538;SDS011;4307;53.868;11.680;2023-08-06T13:40:35;2.53;;;1.63;;
8538;SDS011;4307;53.868;11.680;2023-08-06T13:43:02;2.50;;;1.87;;
8538;SDS011;4307;53.868;11.680;2023-08-06T13:45:29;4.20;;;2.20;;
8538;SDS011;4307;53.868;11.680;2023-08-06T13:47:56;3.17;;;1.93;;
8538;SDS011;4307;53.868;11.680;2023-08-06T13:50:24;3.20;;;1.93;;
8538;SDS011;4307;53.868;11.680;2023-08-06T13:52:52;2.57;;;2.37;;
8538;SDS011;4307;53.868;11.680;2023-08-06T13:55:20;3.90;;;2.07;;
8538;SDS011;4307;53.868;11.680;2023-08-06T13:57:47;5.43;;;2.40;;
8538;SDS011;4307;53.868;11.680;2023-08-06T14:00:15;2.30;;;2.10;;
8538;SDS011;4307;53.868;11.680;2023-08-06T14:02:41;6.60;;;1.87;;
8538;SDS011;4307;53.868;11.680;2023-08-06T14:05:09;3.73;;;2.27;;
8538;SDS011;4307;53.868;11.680;2023-08-06T14:07:37;3.97;;;2.23;;
8538;SDS011;4307;53.868;11.680;2023-08-06T14:10:05;3.17;;;2.50;;
8538;SDS011;4307;53.868;11.680;2023-08-06T14:12:34;3.53;;;2.93;;
8538;SDS011;4307;53.868;11.680;2023-08-06T14:15:01;3.27;;;2.60;;
8538;SDS011;4307;53.868;11.680;2023-08-06T14:17:28;5.10;;;3.03;;
8538;SDS011;4307;53.868;11.680;2023-08-06T14:19:55;3.77;;;2.90;;
8538;SDS011;4307;53.868;11.680;2023-08-06T14:22:21;4.97;;;3.00;;
8538;SDS011;4307;53.868;11.680;2023-08-06T14:24:49;3.57;;;2.80;;
8538;SDS011;4307;53.868;11.680;2023-08-06T14:27:16;3.37;;;2.70;;
8538;SDS011;4307;53.868;11.680;2023-08-06T14:29:43;4.77;;;3.00;;
8538;SDS011;4307;53.868;11.680;2023-08-06T14:32:09;3.40;;;2.70;;
8538;SDS011;4307;53.868;11.680;2023-08-06T14:34:36;5.10;;;2.77;;
8538;SDS011;4307;53.868;11.680;2023-08-06T14:37:03;3.70;;;2.97;;
8538;SDS011;4307;53.868;11.680;2023-08-06T14:39:30;5.37;;;2.87;;
8538;SDS011;4307;53.868;11.680;2023-08-06T14:41:58;2.73;;;2.53;;
8538;SDS011;4307;53.868;11.680;2023-08-06T14:44:24;4.53;;;2.47;;
8538;SDS011;4307;53.868;11.680;2023-08-06T14:46:51;4.77;;;2.90;;
8538;SDS011;4307;53.868;11.680;2023-08-06T14:49:18;3.10;;;2.30;;
8538;SDS011;4307;53.868;11.680;2023-08-06T14:51:45;7.23;;;2.93;;
8538;SDS011;4307;53.868;11.680;2023-08-06T14:54:11;6.50;;;3.07;;
8538;SDS011;4307;53.868;11.680;2023-08-06T14:56:38;6.57;;;2.93;;
8538;SDS011;4307;53.868;11.680;2023-08-06T14:59:06;4.27;;;2.37;;
8538;SDS011;4307;53.868;11.680;2023-08-06T15:01:33;3.70;;;2.77;;
8538;SDS011;4307;53.868;11.680;2023-08-06T15:03:59;5.80;;;2.83;;
8538;SDS011;4307;53.868;11.680;2023-08-06T15:06:26;3.33;;;2.30;;
8538;SDS011;4307;53.868;11.680;2023-08-06T15:08:53;4.03;;;2.70;;
8538;SDS011;4307;53.868;11.680;2023-08-06T15:11:23;3.83;;;2.63;;